Time;durP1;ratioP1;P1;durP2;ratioP2;P2;SDS_P1;SDS_P2;PMS_P1;PMS_P2;Temp;Humidity;BMP_temperature;BMP_pressure;BME280_temperature;BME280_humidity;BME280_pressure;Samples;Min_cycle;Max_cycle;Signal;HPM_P1;HPM_P2
2024/03/04 00:01:32;;;;;;;;;;;;;;;18.56;56.72;100673.31;7392300;19;1938;-37
2024/03/04 00:04:00;;;;;;;;;;;;;;;18.55;56.71;100661.78;7392218;19;1698;-37
2024/03/04 00:06:29;;;;;;;;;;;;;;;18.63;56.40;100669.13;7391074;19;1230;-37
2024/03/04 00:08:58;;;;;;;;;;;;;;;18.66;56.21;100659.00;7389666;19;1865;-37
2024/03/04 00:11:26;;;;;;;;;;;;;;;18.64;56.46;100669.00;7391595;19;1511;-37
2024/03/04 00:13:55;;;;;;;;;;;;;;;18.67;56.38;100671.41;7391277;19;1235;-37
2024/03/04 00:16:26;;;;;;;;;;;;;;;18.69;56.45;100663.25;7392557;19;1093;-36
2024/03/04 00:18:54;;;;;;;;;;;;;;;18.69;56.37;100666.75;7391596;19;1822;-37
2024/03/04 00:21:22;;;;;;;;;;;;;;;18.71;56.20;100655.06;7390063;19;1460;-37
2024/03/04 00:23:51;;;;;;;;;;;;;;;18.77;56.24;100670.59;7391949;19;1421;-37
2024/03/04 00:26:19;;;;;;;;;;;;;;;18.76;56.26;100653.69;7390855;19;1286;-37
2024/03/04 00:28:47;;;;;;;;;;;;;;;18.77;56.08;100659.88;7390980;19;1851;-37
2024/03/04 00:31:16;;;;;;;;;;;;;;;18.81;56.00;100666.69;7391234;19;1159;-37
2024/03/04 00:33:47;;;;;;;;;;;;;;;18.80;55.93;100676.56;7390284;19;1271;-37
2024/03/04 00:36:15;;;;;;;;;;;;;;;18.81;56.15;100661.34;7390910;19;1535;-36
2024/03/04 00:38:45;;;;;;;;;;;;;;;18.86;55.97;100667.09;7388940;19;2556;-37
2024/03/04 00:41:13;;;;;;;;;;;;;;;18.80;55.94;100667.66;7376567;19;1629;-36
2024/03/04 00:43:41;;;;;;;;;;;;;;;18.83;56.13;100672.75;7391322;19;1203;-36
2024/03/04 00:46:10;;;;;;;;;;;;;;;18.85;55.92;100665.44;7391189;19;1192;-36
2024/03/04 00:48:39;;;;;;;;;;;;;;;18.89;55.72;100672.22;7388931;19;1867;-37
2024/03/04 00:51:10;;;;;;;;;;;;;;;18.88;55.67;100660.66;7389938;19;1172;-37
2024/03/04 00:53:38;;;;;;;;;;;;;;;18.88;55.88;100670.53;7390177;19;1484;-37
2024/03/04 00:56:07;;;;;;;;;;;;;;;18.86;55.80;100676.03;7388338;19;1735;-37
2024/03/04 00:58:35;;;;;;;;;;;;;;;18.88;55.75;100668.69;7390597;19;1462;-37
2024/03/04 01:01:03;;;;;;;;;;;;;;;18.91;55.63;100659.53;7390370;19;1027;-36
2024/03/04 01:03:32;;;;;;;;;;;;;;;18.89;55.61;100658.81;7389982;19;1742;-36
2024/03/04 01:06:00;;;;;;;;;;;;;;;18.91;55.68;100646.13;7388288;19;1167;-37
2024/03/04 01:08:31;;;;;;;;;;;;;;;18.93;55.60;100657.53;7388240;19;1854;-36
2024/03/04 01:10:59;;;;;;;;;;;;;;;18.92;55.48;100658.56;7389285;19;1278;-37
2024/03/04 01:13:28;;;;;;;;;;;;;;;18.87;55.73;100642.88;7387138;19;1139;-38
2024/03/04 01:15:56;;;;;;;;;;;;;;;18.91;55.67;100656.00;7390104;19;1182;-37
2024/03/04 01:18:24;;;;;;;;;;;;;;;18.84;55.74;100634.25;7390524;19;1452;-37
2024/03/04 01:20:54;;;;;;;;;;;;;;;18.90;55.64;100670.38;7389680;19;1156;-37
2024/03/04 01:23:23;;;;;;;;;;;;;;;18.89;55.71;100661.50;7390634;19;1189;-37
2024/03/04 01:25:54;;;;;;;;;;;;;;;18.93;55.75;100660.22;7388723;19;1193;-37
2024/03/04 01:28:23;;;;;;;;;;;;;;;18.98;55.36;100649.97;7388985;19;1866;-37
2024/03/04 01:30:53;;;;;;;;;;;;;;;18.95;55.48;100652.91;7388965;19;1575;-36
2024/03/04 01:33:22;;;;;;;;;;;;;;;18.90;55.65;100665.88;7387893;19;1337;-37
2024/03/04 01:35:51;;;;;;;;;;;;;;;18.92;55.43;100649.63;7388424;19;1156;-37
2024/03/04 01:38:19;;;;;;;;;;;;;;;18.94;55.64;100659.25;7388179;19;1641;-37
2024/03/04 01:40:48;;;;;;;;;;;;;;;18.92;55.51;100652.31;7373249;19;1283;-37
2024/03/04 01:43:19;;;;;;;;;;;;;;;18.95;55.30;100650.22;7388581;19;1570;-37
2024/03/04 01:45:47;;;;;;;;;;;;;;;18.97;55.47;100660.81;7389402;19;1025;-37
2024/03/04 01:48:16;;;;;;;;;;;;;;;18.94;55.40;100651.22;7387054;19;1875;-36
2024/03/04 01:50:45;;;;;;;;;;;;;;;18.97;55.29;100647.41;7387860;19;1267;-37
2024/03/04 01:53:14;;;;;;;;;;;;;;;18.93;55.41;100660.22;7387755;19;1275;-36
2024/03/04 01:55:44;;;;;;;;;;;;;;;18.93;55.39;100654.88;7387630;19;1251;-36
2024/03/04 01:58:14;;;;;;;;;;;;;;;18.95;55.33;100652.06;7387898;19;1281;-37
2024/03/04 02:00:48;;;;;;;;;;;;;;;18.94;55.34;100659.25;7388049;19;1549;-37
2024/03/04 02:03:18;;;;;;;;;;;;;;;18.94;55.46;100669.97;7388972;19;1112;-37
2024/03/04 02:05:47;;;;;;;;;;;;;;;18.97;55.31;100667.00;7387257;19;1984;-37
2024/03/04 02:08:17;;;;;;;;;;;;;;;19.05;55.16;100643.03;7388581;19;1886;-38
2024/03/04 02:10:45;;;;;;;;;;;;;;;19.51;54.09;100658.59;7389883;19;1925;-38
2024/03/04 02:13:14;;;;;;;;;;;;;;;19.79;53.47;100667.66;7389391;19;1269;-37
2024/03/04 02:15:47;;;;;;;;;;;;;;;19.51;54.12;100674.69;7389764;19;1782;-37
2024/03/04 02:18:17;;;;;;;;;;;;;;;19.41;54.50;100659.44;7389181;19;1448;-37
2024/03/04 02:20:47;;;;;;;;;;;;;;;19.53;54.30;100648.56;7389009;19;1195;-37
2024/03/04 02:23:19;;;;;;;;;;;;;;;19.65;54.16;100645.59;7390425;19;1088;-37
2024/03/04 02:25:53;;;;;;;;;;;;;;;19.74;53.75;100645.78;7388176;19;1160;-38
2024/03/04 02:28:22;;;;;;;;;;;;;;;19.77;53.54;100645.47;7386582;19;1889;-37
2024/03/04 02:30:51;;;;;;;;;;;;;;;20.16;52.63;100651.59;7385644;19;1560;-37
2024/03/04 02:33:21;;;;;;;;;;;;;;;20.11;52.86;100640.44;7386876;19;1274;-38
2024/03/04 02:35:50;;;;;;;;;;;;;;;19.97;53.21;100646.28;7387281;19;1535;-37
2024/03/04 02:38:21;;;;;;;;;;;;;;;20.41;52.00;100646.56;7386809;19;1499;-37
2024/03/04 02:40:50;;;;;;;;;;;;;;;20.28;52.32;100646.91;7372330;19;1583;-37
2024/03/04 02:43:18;;;;;;;;;;;;;;;19.92;53.06;100645.91;7387058;19;1500;-37
2024/03/04 02:45:47;;;;;;;;;;;;;;;19.50;54.26;100654.22;7385391;19;951;-37
2024/03/04 02:48:15;;;;;;;;;;;;;;;19.22;54.61;100678.22;7386034;19;1845;-37
2024/03/04 02:50:44;;;;;;;;;;;;;;;19.22;54.72;100664.81;7386470;19;1622;-37
2024/03/04 02:53:12;;;;;;;;;;;;;;;19.48;54.27;100655.22;7387519;19;1647;-37
2024/03/04 02:55:43;;;;;;;;;;;;;;;19.48;54.22;100671.31;7386292;19;1195;-37
2024/03/04 02:58:12;;;;;;;;;;;;;;;20.12;52.85;100670.84;7387385;19;1512;-37
2024/03/04 03:00:40;;;;;;;;;;;;;;;19.70;52.96;100626.41;7387446;19;1141;-37
2024/03/04 03:03:08;;;;;;;;;;;;;;;19.82;53.55;100664.69;7387216;19;1073;-37
2024/03/04 03:05:37;;;;;;;;;;;;;;;19.83;53.60;100666.38;7386074;19;1821;-36
2024/03/04 03:08:06;;;;;;;;;;;;;;;20.01;53.30;100696.00;7385757;19;1842;-36
2024/03/04 03:10:36;;;;;;;;;;;;;;;19.98;53.13;100677.50;7386092;19;1646;-37
2024/03/04 03:13:07;;;;;;;;;;;;;;;19.72;53.19;100637.88;7385530;19;1526;-36
2024/03/04 03:15:36;;;;;;;;;;;;;;;20.04;53.05;100682.31;7385381;19;1474;-37
2024/03/04 03:18:07;;;;;;;;;;;;;;;19.99;53.05;100697.97;7385917;19;1562;-37
2024/03/04 03:20:36;;;;;;;;;;;;;;;19.98;53.14;100693.63;7385653;19;1563;-36
2024/03/04 03:23:04;;;;;;;;;;;;;;;19.96;53.03;100704.50;7386510;19;1188;-37
2024/03/04 03:25:32;;;;;;;;;;;;;;;20.04;52.98;100698.41;7385007;19;1547;-37
2024/03/04 03:28:01;;;;;;;;;;;;;;;20.30;52.29;100676.31;7385287;19;1570;-36
2024/03/04 03:30:32;;;;;;;;;;;;;;;20.25;52.45;100688.34;7383790;19;1849;-36
2024/03/04 03:33:00;;;;;;;;;;;;;;;20.10;52.58;100687.09;7385660;19;1086;-37
2024/03/04 03:35:29;;;;;;;;;;;;;;;20.05;53.00;100683.97;7385624;19;1538;-37
2024/03/04 03:37:57;;;;;;;;;;;;;;;20.10;52.91;100692.47;7384939;19;1598;-37
2024/03/04 03:40:23;;;;;;;;;;;;;;;20.07;52.76;100687.38;7370499;19;1638;-36
2024/03/04 03:42:52;;;;;;;;;;;;;;;20.07;52.84;100687.38;7385863;19;1246;-36
2024/03/04 03:45:21;;;;;;;;;;;;;;;20.00;53.20;100689.78;7386527;19;1439;-36
2024/03/04 03:47:51;;;;;;;;;;;;;;;20.04;53.04;100685.00;7385757;19;1199;-36
2024/03/04 03:50:23;;;;;;;;;;;;;;;20.02;53.03;100711.97;7384175;19;1857;-36
2024/03/04 03:52:51;;;;;;;;;;;;;;;20.00;53.23;100695.16;7386150;19;1468;-37
2024/03/04 03:55:19;;;;;;;;;;;;;;;20.07;52.89;100692.75;7387555;19;1006;-37
2024/03/04 03:57:48;;;;;;;;;;;;;;;20.09;52.82;100717.59;7392969;19;1057;-37
2024/03/04 04:00:17;;;;;;;;;;;;;;;19.94;53.18;100705.63;7392774;19;1399;-37
2024/03/04 04:02:45;;;;;;;;;;;;;;;19.51;54.13;100701.50;7391916;19;1626;-37
2024/03/04 04:05:16;;;;;;;;;;;;;;;19.33;54.53;100709.41;7391357;19;1551;-36
2024/03/04 04:07:45;;;;;;;;;;;;;;;19.12;54.90;100714.84;7391981;19;1625;-37
2024/03/04 04:10:14;;;;;;;;;;;;;;;19.02;54.83;100718.38;7389811;19;1850;-37
2024/03/04 04:12:42;;;;;;;;;;;;;;;18.95;55.14;100730.59;7392310;19;1645;-37
2024/03/04 04:15:11;;;;;;;;;;;;;;;18.88;55.25;100718.75;7390571;19;1201;-36
2024/03/04 04:17:39;;;;;;;;;;;;;;;18.79;55.36;100716.84;7391808;19;1476;-37
2024/03/04 04:20:09;;;;;;;;;;;;;;;18.73;55.42;100730.78;7391612;19;1607;-37
2024/03/04 04:22:40;;;;;;;;;;;;;;;18.67;55.41;100730.31;7392027;19;1159;-37
2024/03/04 04:25:09;;;;;;;;;;;;;;;18.59;55.76;100730.16;7390484;19;1529;-37
2024/03/04 04:27:37;;;;;;;;;;;;;;;18.49;55.83;100726.59;7391119;19;1513;-37
2024/03/04 04:30:06;;;;;;;;;;;;;;;18.49;55.66;100737.28;7389579;19;1848;-37
2024/03/04 04:32:35;;;;;;;;;;;;;;;18.44;55.83;100734.16;7391077;19;1511;-37
2024/03/04 04:35:04;;;;;;;;;;;;;;;18.47;55.64;100725.88;7391444;19;1397;-36
2024/03/04 04:37:32;;;;;;;;;;;;;;;18.46;55.54;100735.75;7392246;19;1637;-37
2024/03/04 04:40:03;;;;;;;;;;;;;;;18.52;55.70;100736.16;7391103;19;1556;-37
2024/03/04 04:42:31;;;;;;;;;;;;;;;18.95;54.83;100737.81;7376372;19;1361;-36
2024/03/04 04:45:00;;;;;;;;;;;;;;;18.82;54.98;100735.34;7390871;19;1554;-36
2024/03/04 04:47:29;;;;;;;;;;;;;;;18.77;55.34;100746.44;7390613;19;1578;-36
2024/03/04 04:49:58;;;;;;;;;;;;;;;18.88;55.11;100735.69;7387961;19;1879;-37
2024/03/04 04:52:26;;;;;;;;;;;;;;;18.95;54.84;100735.97;7390868;19;1290;-37
2024/03/04 04:54:55;;;;;;;;;;;;;;;19.03;54.62;100736.13;7390227;19;1571;-37
2024/03/04 04:57:26;;;;;;;;;;;;;;;19.02;54.50;100749.66;7391155;19;1543;-37
2024/03/04 04:59:54;;;;;;;;;;;;;;;19.01;54.64;100754.19;7389556;19;1422;-37
2024/03/04 05:02:23;;;;;;;;;;;;;;;19.10;54.55;100767.75;7390423;19;1131;-37
2024/03/04 05:04:51;;;;;;;;;;;;;;;19.00;54.55;100752.50;7390542;19;1524;-37
2024/03/04 05:07:19;;;;;;;;;;;;;;;19.01;54.68;100754.19;7388573;19;1168;-37
2024/03/04 05:09:47;;;;;;;;;;;;;;;19.02;54.63;100755.91;7388312;19;1845;-37
2024/03/04 05:12:16;;;;;;;;;;;;;;;19.06;54.53;100753.78;7388408;19;2367;-37
2024/03/04 05:14:47;;;;;;;;;;;;;;;19.10;54.33;100767.75;7389617;19;1497;-37
2024/03/04 05:17:15;;;;;;;;;;;;;;;19.03;54.59;100762.94;7389272;19;1235;-37
2024/03/04 05:19:44;;;;;;;;;;;;;;;19.03;54.56;100765.63;7389570;19;1047;-37
2024/03/04 05:22:13;;;;;;;;;;;;;;;19.05;54.55;100776.19;7389224;19;1488;-37
2024/03/04 05:24:41;;;;;;;;;;;;;;;19.05;54.46;100766.31;7388975;19;1567;-37
2024/03/04 05:27:10;;;;;;;;;;;;;;;19.15;54.23;100778.91;7389351;19;1539;-36
2024/03/04 05:29:38;;;;;;;;;;;;;;;19.13;54.32;100772.84;7388068;19;1887;-37
2024/03/04 05:32:09;;;;;;;;;;;;;;;19.07;54.28;100769.72;7388909;19;1555;-37
2024/03/04 05:34:37;;;;;;;;;;;;;;;19.11;54.40;100785.53;7388828;19;1532;-36
2024/03/04 05:37:06;;;;;;;;;;;;;;;19.11;54.37;100785.53;7387084;19;1526;-36
2024/03/04 05:39:34;;;;;;;;;;;;;;;19.08;54.32;100765.22;7386674;19;2427;-37
2024/03/04 05:42:03;;;;;;;;;;;;;;;19.10;54.34;100778.47;7372346;19;1781;-37
2024/03/04 05:44:31;;;;;;;;;;;;;;;19.07;54.55;100771.56;7388915;19;1497;-37
2024/03/04 05:47:00;;;;;;;;;;;;;;;19.10;54.24;100792.75;7390288;19;1113;-37
2024/03/04 05:49:31;;;;;;;;;;;;;;;19.06;54.34;100781.44;7388296;19;1859;-37
2024/03/04 05:51:59;;;;;;;;;;;;;;;19.05;54.29;100782.41;7388513;19;1179;-36
2024/03/04 05:54:28;;;;;;;;;;;;;;;19.10;54.27;100775.78;7388452;19;1420;-36
2024/03/04 05:56:56;;;;;;;;;;;;;;;19.10;54.26;100779.34;7388203;19;1268;-37
2024/03/04 05:59:24;;;;;;;;;;;;;;;19.16;54.26;100788.66;7388182;19;1219;-36
2024/03/04 06:01:53;;;;;;;;;;;;;;;19.12;54.33;100777.38;7387462;19;1551;-37
2024/03/04 06:04:21;;;;;;;;;;;;;;;19.14;54.26;100779.88;7388496;19;1550;-37
2024/03/04 06:06:52;;;;;;;;;;;;;;;19.13;54.28;100779.06;7387957;19;1623;-37
2024/03/04 06:09:21;;;;;;;;;;;;;;;19.15;54.32;100770.88;7387154;19;1849;-36
2024/03/04 06:11:50;;;;;;;;;;;;;;;19.19;54.09;100769.63;7387027;19;1306;-37
2024/03/04 06:14:18;;;;;;;;;;;;;;;19.23;53.98;100792.50;7386926;19;1302;-37
2024/03/04 06:16:47;;;;;;;;;;;;;;;19.20;54.27;100787.38;7386770;19;1231;-37
2024/03/04 06:19:15;;;;;;;;;;;;;;;19.20;54.27;100785.56;7385394;19;1047;-37
2024/03/04 06:21:43;;;;;;;;;;;;;;;19.27;54.41;100797.44;7388016;19;1813;-37
2024/03/04 06:24:14;;;;;;;;;;;;;;;19.22;54.26;100798.84;7387461;19;1495;-37
2024/03/04 06:26:43;;;;;;;;;;;;;;;19.25;54.19;100793.19;7386985;19;1223;-37
2024/03/04 06:29:11;;;;;;;;;;;;;;;19.25;53.97;100787.84;7387373;19;1844;-37
2024/03/04 06:31:39;;;;;;;;;;;;;;;19.29;54.20;100794.63;7387429;19;1602;-37
2024/03/04 06:34:08;;;;;;;;;;;;;;;19.32;54.14;100789.00;7386398;19;1727;-36
2024/03/04 06:36:36;;;;;;;;;;;;;;;19.33;53.91;100790.69;7387502;19;1303;-37
2024/03/04 06:39:05;;;;;;;;;;;;;;;19.34;53.84;100789.72;7387578;19;1113;-37
2024/03/04 06:41:36;;;;;;;;;;;;;;;19.36;54.04;100786.88;7373279;19;970;-36
2024/03/04 06:44:05;;;;;;;;;;;;;;;19.42;53.86;100795.22;7386974;19;1739;-37
2024/03/04 06:46:33;;;;;;;;;;;;;;;19.44;53.91;100776.31;7386846;19;1566;-36
2024/03/04 06:49:01;;;;;;;;;;;;;;;19.46;54.01;100780.56;7386235;19;1658;-36
2024/03/04 06:51:35;;;;;;;;;;;;;;;19.50;53.79;100789.19;7384749;19;1834;-36
2024/03/04 06:54:03;;;;;;;;;;;;;;;19.52;54.06;100780.97;7385987;19;1563;-37
2024/03/04 06:56:32;;;;;;;;;;;;;;;19.28;54.20;100787.59;7387295;19;1247;-36
2024/03/04 06:59:03;;;;;;;;;;;;;;;19.13;54.86;100787.09;7386096;19;1334;-37
2024/03/04 07:01:31;;;;;;;;;;;;;;;19.00;55.01;100790.03;7386003;19;1551;-37
2024/03/04 07:04:00;;;;;;;;;;;;;;;18.86;55.53;100795.72;7385920;19;1168;-36
2024/03/04 07:06:28;;;;;;;;;;;;;;;18.53;55.55;100744.09;7387047;19;1382;-37
2024/03/04 07:08:57;;;;;;;;;;;;;;;18.77;55.63;100788.47;7386182;19;1633;-36
2024/03/04 07:11:25;;;;;;;;;;;;;;;18.73;55.66;100776.31;7384307;19;1851;-37
2024/03/04 07:13:53;;;;;;;;;;;;;;;18.75;55.68;100795.78;7385903;19;1159;-37
2024/03/04 07:16:24;;;;;;;;;;;;;;;18.71;55.68;100759.53;7387015;19;1164;-37
2024/03/04 07:18:53;;;;;;;;;;;;;;;18.68;55.76;100782.94;7386630;19;1522;-37
2024/03/04 07:21:22;;;;;;;;;;;;;;;18.64;55.76;100772.59;7385764;19;1153;-36
2024/03/04 07:23:50;;;;;;;;;;;;;;;18.61;55.87;100776.41;7386748;19;1061;-37
2024/03/04 07:26:21;;;;;;;;;;;;;;;18.65;55.92;100783.19;7385722;19;1829;-35
2024/03/04 07:28:49;;;;;;;;;;;;;;;18.56;56.18;100778.66;7385612;19;1433;-35
2024/03/04 07:31:19;;;;;;;;;;;;;;;18.77;55.62;100783.94;7387443;19;1941;-35
2024/03/04 07:33:49;;;;;;;;;;;;;;;19.01;55.13;100780.97;7393642;19;1581;-37
2024/03/04 07:36:18;;;;;;;;;;;;;;;19.30;54.62;100785.59;7393979;19;1026;-37
2024/03/04 07:38:46;;;;;;;;;;;;;;;19.16;54.68;100780.59;7392616;19;1136;-37
2024/03/04 07:41:14;;;;;;;;;;;;;;;18.97;55.28;100770.69;7378514;19;1677;-37
2024/03/04 07:43:43;;;;;;;;;;;;;;;18.84;55.64;100765.53;7393170;19;1684;-37
2024/03/04 07:46:11;;;;;;;;;;;;;;;18.75;55.79;100771.69;7393769;19;1591;-37
2024/03/04 07:48:39;;;;;;;;;;;;;;;18.78;55.61;100758.00;7392365;19;1558;-37
2024/03/04 07:51:11;;;;;;;;;;;;;;;18.68;55.81;100753.47;7389568;19;1844;-37
2024/03/04 07:53:39;;;;;;;;;;;;;;;18.65;56.04;100748.38;7392883;19;1511;-37
2024/03/04 07:56:08;;;;;;;;;;;;;;;18.63;55.93;100752.16;7393248;19;1482;-37
2024/03/04 07:58:37;;;;;;;;;;;;;;;18.62;55.96;100748.66;7392221;19;1188;-37
2024/03/04 08:01:05;;;;;;;;;;;;;;;18.58;56.10;100763.28;7392256;19;1520;-37
2024/03/04 08:03:35;;;;;;;;;;;;;;;18.53;56.24;100760.16;7392011;19;1199;-37
2024/03/04 08:06:03;;;;;;;;;;;;;;;18.60;56.18;100745.25;7392292;19;1177;-36
2024/03/04 08:08:34;;;;;;;;;;;;;;;18.93;55.58;100737.94;7393282;19;1030;-37
2024/03/04 08:11:04;;;;;;;;;;;;;;;19.15;54.96;100746.75;7390843;19;1857;-37
2024/03/04 08:13:32;;;;;;;;;;;;;;;19.16;55.00;100730.53;7392194;19;1568;-37
2024/03/04 08:16:00;;;;;;;;;;;;;;;18.93;55.40;100735.25;7391272;19;1485;-37
2024/03/04 08:18:29;;;;;;;;;;;;;;;18.79;56.04;100741.84;7391707;19;1460;-37
2024/03/04 08:20:57;;;;;;;;;;;;;;;18.74;55.83;100727.09;7391387;19;1513;-37
2024/03/04 08:23:25;;;;;;;;;;;;;;;18.63;56.18;100734.25;7391168;19;1432;-37
2024/03/04 08:25:56;;;;;;;;;;;;;;;18.57;56.36;100726.75;7391657;19;1086;-36
2024/03/04 08:28:25;;;;;;;;;;;;;;;18.58;56.25;100724.91;7392064;19;1061;-37
2024/03/04 08:30:53;;;;;;;;;;;;;;;18.52;56.44;100717.44;7389303;19;1857;-37
2024/03/04 08:33:21;;;;;;;;;;;;;;;18.50;56.52;100712.19;7390324;19;1381;-39
2024/03/04 08:35:50;;;;;;;;;;;;;;;18.27;56.42;100664.19;7390570;19;1626;-37
2024/03/04 08:38:18;;;;;;;;;;;;;;;18.77;55.83;100716.13;7390816;19;1598;-37
2024/03/04 08:40:46;;;;;;;;;;;;;;;19.01;55.40;100716.66;7390556;19;1277;-37
2024/03/04 08:43:17;;;;;;;;;;;;;;;19.22;54.98;100707.69;7374294;19;1599;-36
2024/03/04 08:45:47;;;;;;;;;;;;;;;18.98;55.46;100690.16;7391583;19;1206;-37
2024/03/04 08:48:16;;;;;;;;;;;;;;;18.81;55.92;100697.00;7391771;19;1546;-37
2024/03/04 08:50:44;;;;;;;;;;;;;;;18.77;55.90;100692.88;7390256;19;1876;-36
2024/03/04 08:53:13;;;;;;;;;;;;;;;18.72;56.14;100703.16;7391443;19;1116;-37
2024/03/04 08:55:41;;;;;;;;;;;;;;;18.65;56.14;100694.78;7391331;19;1059;-36
2024/03/04 08:58:09;;;;;;;;;;;;;;;18.67;56.19;100690.16;7390538;19;1906;-37
2024/03/04 09:00:40;;;;;;;;;;;;;;;18.58;56.54;100704.38;7389923;19;1152;-37
2024/03/04 09:03:08;;;;;;;;;;;;;;;18.59;56.32;100678.44;7390447;19;1553;-38
2024/03/04 09:05:37;;;;;;;;;;;;;;;18.64;56.14;100690.44;7390418;19;1835;-37
2024/03/04 09:08:05;;;;;;;;;;;;;;;18.61;56.49;100703.25;7391775;19;1189;-37
2024/03/04 09:10:33;;;;;;;;;;;;;;;18.94;55.76;100691.41;7392066;19;1854;-37
2024/03/04 09:13:02;;;;;;;;;;;;;;;19.25;55.30;100688.66;7391831;19;2338;-37
2024/03/04 09:15:30;;;;;;;;;;;;;;;19.13;55.38;100700.47;7391920;19;1919;-37
2024/03/04 09:18:02;;;;;;;;;;;;;;;18.93;55.80;100704.94;7391759;19;1595;-37
2024/03/04 09:20:30;;;;;;;;;;;;;;;18.76;56.32;100699.22;7391917;19;1487;-36
2024/03/04 09:22:58;;;;;;;;;;;;;;;18.67;56.39;100687.47;7392706;19;1109;-37
2024/03/04 09:25:26;;;;;;;;;;;;;;;18.68;56.46;100686.50;7391237;19;1507;-37
2024/03/04 09:27:55;;;;;;;;;;;;;;;18.74;56.17;100693.16;7390727;19;1449;-37
2024/03/04 09:30:25;;;;;;;;;;;;;;;18.74;56.13;100690.47;7390119;19;1887;-37
2024/03/04 09:32:53;;;;;;;;;;;;;;;18.75;56.20;100691.31;7388873;19;1504;-37
2024/03/04 09:35:24;;;;;;;;;;;;;;;18.76;56.24;100706.38;7389337;19;1669;-36
2024/03/04 09:37:52;;;;;;;;;;;;;;;18.72;56.29;100699.59;7389856;19;1536;-37
2024/03/04 09:40:21;;;;;;;;;;;;;;;18.62;56.36;100689.72;7390067;19;1006;-37
2024/03/04 09:42:50;;;;;;;;;;;;;;;18.67;56.69;100682.13;7373249;19;1564;-37
2024/03/04 09:45:20;;;;;;;;;;;;;;;19.04;55.82;100686.91;7386260;19;2064;-37
2024/03/04 09:47:51;;;;;;;;;;;;;;;19.33;55.25;100688.78;7387973;19;1565;-37
2024/03/04 09:50:21;;;;;;;;;;;;;;;19.04;55.60;100684.25;7388330;19;1869;-37
2024/03/04 09:52:52;;;;;;;;;;;;;;;18.87;56.34;100690.25;7387211;19;1140;-37
2024/03/04 09:55:20;;;;;;;;;;;;;;;18.76;56.40;100688.50;7389011;19;1048;-37
2024/03/04 09:57:49;;;;;;;;;;;;;;;18.66;56.66;100679.56;7388990;19;1049;-37
2024/03/04 10:00:17;;;;;;;;;;;;;;;18.69;56.58;100653.34;7388579;19;1466;-36
2024/03/04 10:02:46;;;;;;;;;;;;;;;18.74;56.34;100676.22;7388294;19;1503;-36
2024/03/04 10:05:15;;;;;;;;;;;;;;;18.79;56.33;100684.69;7387798;19;1575;-37
2024/03/04 10:07:44;;;;;;;;;;;;;;;18.77;56.47;100676.78;7387666;19;1163;-37
2024/03/04 10:10:15;;;;;;;;;;;;;;;18.68;56.41;100667.75;7387360;19;1596;-37
2024/03/04 10:12:43;;;;;;;;;;;;;;;18.73;56.42;100653.09;7385985;19;1856;-36
2024/03/04 10:15:13;;;;;;;;;;;;;;;18.76;56.32;100669.75;7386316;19;1278;-37
2024/03/04 10:17:41;;;;;;;;;;;;;;;18.67;56.67;100655.34;7387022;19;1455;-37
2024/03/04 10:20:11;;;;;;;;;;;;;;;18.86;56.45;100654.59;7387237;19;1646;-37
2024/03/04 10:22:40;;;;;;;;;;;;;;;19.28;55.37;100658.88;7387970;19;1019;-37
2024/03/04 10:25:10;;;;;;;;;;;;;;;19.70;54.50;100625.56;7386339;19;1708;-36
2024/03/04 10:27:42;;;;;;;;;;;;;;;20.03;53.77;100632.28;7387577;19;1638;-36
2024/03/04 10:30:11;;;;;;;;;;;;;;;20.14;53.31;100625.91;7387805;19;1152;-37
2024/03/04 10:32:40;;;;;;;;;;;;;;;20.24;53.16;100624.88;7384806;19;1857;-37
2024/03/04 10:35:09;;;;;;;;;;;;;;;20.33;52.95;100614.22;7386820;19;1144;-37
2024/03/04 10:37:37;;;;;;;;;;;;;;;20.40;52.98;100623.41;7387911;19;1610;-37
2024/03/04 10:40:09;;;;;;;;;;;;;;;20.40;52.77;100613.50;7387284;19;1191;-36
2024/03/04 10:42:37;;;;;;;;;;;;;;;20.27;53.41;100605.78;7372451;19;1100;-37
2024/03/04 10:45:09;;;;;;;;;;;;;;;20.18;53.72;100621.94;7384806;19;2312;-37
2024/03/04 10:47:39;;;;;;;;;;;;;;;20.14;53.75;100618.69;7387837;19;1475;-36
2024/03/04 10:50:07;;;;;;;;;;;;;;;20.08;54.12;100635.38;7387463;19;1650;-37
2024/03/04 10:52:36;;;;;;;;;;;;;;;20.05;53.95;100608.81;7386884;19;1847;-37
2024/03/04 10:55:05;;;;;;;;;;;;;;;20.04;54.22;100596.41;7386664;19;1751;-36
2024/03/04 10:57:34;;;;;;;;;;;;;;;20.03;54.16;100603.63;7386763;19;1558;-37
2024/03/04 11:00:17;;;;;;;;;;;;;;;20.03;54.13;100610.81;7386578;19;1532;-37
2024/03/04 11:02:50;;;;;;;;;;;;;;;20.02;54.19;100601.06;7387233;19;1495;-37
2024/03/04 11:05:22;;;;;;;;;;;;;;;20.04;54.15;100601.78;7387508;19;1539;-37
2024/03/04 11:07:52;;;;;;;;;;;;;;;19.99;54.42;100596.81;7394296;19;1448;-36
2024/03/04 11:10:26;;;;;;;;;;;;;;;20.00;54.27;100589.66;7391378;19;2356;-37
2024/03/04 11:13:00;;;;;;;;;;;;;;;20.07;54.25;100590.72;7390668;19;1862;-37
2024/03/04 11:15:33;;;;;;;;;;;;;;;20.07;54.19;100569.25;7393271;19;1603;-35
2024/03/04 11:18:07;;;;;;;;;;;;;;;19.80;54.47;100527.97;7393252;19;1265;-34
2024/03/04 11:20:41;;;;;;;;;;;;;;;20.04;54.43;100572.25;7393024;19;1164;-34
2024/03/04 11:23:11;;;;;;;;;;;;;;;20.04;54.24;100565.03;7394510;19;1175;-35
2024/03/04 11:25:39;;;;;;;;;;;;;;;20.00;54.46;100566.31;7392870;19;1579;-35
2024/03/04 11:28:09;;;;;;;;;;;;;;;20.01;54.25;100559.94;7392803;19;1246;-39
2024/03/04 11:30:40;;;;;;;;;;;;;;;20.03;54.47;100555.31;7394274;19;1101;-35
2024/03/04 11:33:36;;;;;;;;;;;;;;;20.05;54.27;100549.78;7390025;19;1857;-35
2024/03/04 11:36:07;;;;;;;;;;;;;;;20.07;54.53;100553.16;7390098;19;1936;-35
2024/03/04 11:38:41;;;;;;;;;;;;;;;20.10;54.34;100546.66;7393085;19;1573;-35
2024/03/04 11:41:10;;;;;;;;;;;;;;;20.03;54.50;100546.38;7392874;19;1504;-35
2024/03/04 11:43:45;;;;;;;;;;;;;;;20.08;54.32;100544.13;7377873;19;1542;-35
2024/03/04 11:46:14;;;;;;;;;;;;;;;20.07;54.29;100542.41;7393359;19;1567;-35
2024/03/04 11:48:42;;;;;;;;;;;;;;;20.09;54.35;100535.06;7392966;19;1105;-35
2024/03/04 11:51:13;;;;;;;;;;;;;;;20.10;54.39;100535.94;7392125;19;1855;-36
2024/03/04 11:53:45;;;;;;;;;;;;;;;20.13;54.30;100525.72;7392123;19;1277;-36
2024/03/04 11:56:14;;;;;;;;;;;;;;;20.13;54.43;100531.06;7392435;19;1560;-36
2024/03/04 11:58:42;;;;;;;;;;;;;;;20.12;54.23;100533.94;7392430;19;1587;-36
2024/03/04 12:01:11;;;;;;;;;;;;;;;20.12;54.33;100545.50;7392158;19;1556;-36
2024/03/04 12:03:52;;;;;;;;;;;;;;;20.18;54.50;100517.22;7391873;19;1282;-36
2024/03/04 12:06:23;;;;;;;;;;;;;;;20.16;54.42;100509.31;7391404;19;1595;-36
2024/03/04 12:08:51;;;;;;;;;;;;;;;20.13;54.43;100498.88;7391595;19;1550;-36
2024/03/04 12:11:20;;;;;;;;;;;;;;;20.19;54.13;100513.53;7391980;19;1857;-36
2024/03/04 12:13:50;;;;;;;;;;;;;;;19.92;54.19;100463.41;7392590;19;1057;-36
2024/03/04 12:16:18;;;;;;;;;;;;;;;20.18;54.32;100501.13;7391032;19;1496;-35
2024/03/04 12:18:50;;;;;;;;;;;;;;;20.18;54.46;100499.28;7391519;19;1554;-36
2024/03/04 12:21:20;;;;;;;;;;;;;;;20.13;54.43;100498.03;7391213;19;1250;-36
2024/03/04 12:23:51;;;;;;;;;;;;;;;20.22;54.30;100497.13;7391888;19;1519;-36
2024/03/04 12:26:19;;;;;;;;;;;;;;;20.18;54.28;100490.38;7391703;19;1199;-36
2024/03/04 12:28:59;;;;;;;;;;;;;;;20.19;54.20;100503.66;7391568;19;1595;-36
2024/03/04 12:31:27;;;;;;;;;;;;;;;20.19;54.48;100492.94;7390550;19;1883;-36
2024/03/04 12:33:56;;;;;;;;;;;;;;;20.24;54.27;100489.78;7390132;19;1670;-35
2024/03/04 12:36:25;;;;;;;;;;;;;;;20.24;54.38;100479.88;7391088;19;2055;-35
2024/03/04 12:38:56;;;;;;;;;;;;;;;20.24;54.35;100479.88;7388608;19;2357;-35
2024/03/04 12:41:26;;;;;;;;;;;;;;;20.22;54.51;100471.13;7390576;19;1777;-36
2024/03/04 12:43:55;;;;;;;;;;;;;;;20.20;54.52;100453.50;7375584;19;1582;-36
2024/03/04 12:46:24;;;;;;;;;;;;;;;20.22;54.45;100452.34;7391366;19;1092;-36
2024/03/04 12:48:52;;;;;;;;;;;;;;;20.23;54.25;100451.34;7390693;19;1558;-36
2024/03/04 12:51:20;;;;;;;;;;;;;;;20.27;54.39;100457.25;7390098;19;1874;-36
2024/03/04 12:53:48;;;;;;;;;;;;;;;20.27;54.34;100442.00;7390583;19;1890;-36
2024/03/04 12:56:19;;;;;;;;;;;;;;;20.25;54.28;100449.34;7390188;19;1212;-36
2024/03/04 12:58:48;;;;;;;;;;;;;;;20.29;54.25;100447.19;7391286;19;1765;-35